桃園國際機場 - ATIS

SPECI RCTP 181442Z 20007KT 160V230 5000 SHRA FEW008 FEW015CB BKN020 BKN030 25/25 Q1006 RETS NOSIG RMK CB NW-N A2972=

站台狀態:Offline
最後更新:2019-08-18 22:45:02